sensor_id;sensor_type;location;lat;lon;timestamp;pressure;altitude;pressure_sealevel;temperature;humidity
56182;BME280;51963;46.052;14.544;2023-02-27T00:00:38;98172.91;;;-0.13;100.00
56182;BME280;51963;46.052;14.544;2023-02-27T00:03:04;98177.16;;;-0.12;100.00
56182;BME280;51963;46.052;14.544;2023-02-27T00:05:30;98175.38;;;-0.12;99.78
56182;BME280;51963;46.052;14.544;2023-02-27T00:07:56;98183.53;;;-0.17;100.00
56182;BME280;51963;46.052;14.544;2023-02-27T00:10:21;98183.28;;;-0.13;100.00
56182;BME280;51963;46.052;14.544;2023-02-27T00:12:47;98175.94;;;-0.08;100.00
56182;BME280;51963;46.052;14.544;2023-02-27T00:15:16;98182.34;;;-0.12;98.91
56182;BME280;51963;46.052;14.544;2023-02-27T00:17:42;98188.59;;;-0.04;99.41
56182;BME280;51963;46.052;14.544;2023-02-27T00:20:12;98157.00;;;-0.20;98.35
56182;BME280;51963;46.052;14.544;2023-02-27T00:22:39;98187.50;;;-0.01;97.86
56182;BME280;51963;46.052;14.544;2023-02-27T00:25:06;98192.94;;;-0.04;99.26
56182;BME280;51963;46.052;14.544;2023-02-27T00:27:32;98187.06;;;-0.06;97.52
56182;BME280;51963;46.052;14.544;2023-02-27T00:30:01;98186.09;;;-0.05;97.34
56182;BME280;51963;46.052;14.544;2023-02-27T00:32:31;98192.94;;;-0.04;96.84
56182;BME280;51963;46.052;14.544;2023-02-27T00:34:57;98187.19;;;-0.08;96.98
56182;BME280;51963;46.052;14.544;2023-02-27T00:37:23;98198.63;;;-0.10;97.54
56182;BME280;51963;46.052;14.544;2023-02-27T00:39:49;98198.75;;;-0.01;96.82
56182;BME280;51963;46.052;14.544;2023-02-27T00:42:15;98190.50;;;-0.06;97.85
56182;BME280;51963;46.052;14.544;2023-02-27T00:44:41;98192.00;;;-0.03;97.78
56182;BME280;51963;46.052;14.544;2023-02-27T00:47:07;98173.16;;;-0.17;95.25
56182;BME280;51963;46.052;14.544;2023-02-27T00:49:32;98201.44;;;-0.02;95.32
56182;BME280;51963;46.052;14.544;2023-02-27T00:51:58;98195.88;;;0.03;96.09
56182;BME280;51963;46.052;14.544;2023-02-27T00:54:24;98186.59;;;-0.11;95.98
56182;BME280;51963;46.052;14.544;2023-02-27T00:56:49;98198.16;;;-0.04;95.31
56182;BME280;51963;46.052;14.544;2023-02-27T00:59:15;98197.91;;;-0.01;95.29
56182;BME280;51963;46.052;14.544;2023-02-27T01:01:41;98196.50;;;-0.05;95.03
56182;BME280;51963;46.052;14.544;2023-02-27T01:04:09;98198.84;;;-0.02;93.80
56182;BME280;51963;46.052;14.544;2023-02-27T01:06:35;98200.63;;;-0.03;95.41
56182;BME280;51963;46.052;14.544;2023-02-27T01:09:01;98204.28;;;-0.05;95.50
56182;BME280;51963;46.052;14.544;2023-02-27T01:11:27;98207.38;;;0.00;96.83
56182;BME280;51963;46.052;14.544;2023-02-27T01:13:53;98205.25;;;-0.06;96.16
56182;BME280;51963;46.052;14.544;2023-02-27T01:16:19;98212.34;;;-0.08;96.13
56182;BME280;51963;46.052;14.544;2023-02-27T01:18:44;98216.13;;;-0.12;96.62
56182;BME280;51963;46.052;14.544;2023-02-27T01:21:10;98214.63;;;-0.15;95.23
56182;BME280;51963;46.052;14.544;2023-02-27T01:23:36;98189.47;;;-0.26;95.79
56182;BME280;51963;46.052;14.544;2023-02-27T01:26:01;98213.88;;;-0.06;96.85
56182;BME280;51963;46.052;14.544;2023-02-27T01:28:27;98205.97;;;-0.16;96.81
56182;BME280;51963;46.052;14.544;2023-02-27T01:30:53;98211.19;;;-0.16;98.46
56182;BME280;51963;46.052;14.544;2023-02-27T01:33:18;98207.06;;;-0.18;96.44
56182;BME280;51963;46.052;14.544;2023-02-27T01:35:44;98205.41;;;-0.19;94.96
56182;BME280;51963;46.052;14.544;2023-02-27T01:38:10;98202.88;;;-0.09;92.44
56182;BME280;51963;46.052;14.544;2023-02-27T01:40:38;98200.28;;;-0.09;93.63
56182;BME280;51963;46.052;14.544;2023-02-27T01:43:06;98188.44;;;-0.23;94.55
56182;BME280;51963;46.052;14.544;2023-02-27T01:45:38;98209.28;;;-0.13;95.11
56182;BME280;51963;46.052;14.544;2023-02-27T01:48:12;98209.97;;;-0.11;93.36
56182;BME280;51963;46.052;14.544;2023-02-27T01:50:45;98219.44;;;-0.10;92.83
56182;BME280;51963;46.052;14.544;2023-02-27T01:53:13;98214.47;;;-0.13;92.72
56182;BME280;51963;46.052;14.544;2023-02-27T01:55:39;98216.63;;;-0.19;93.68
56182;BME280;51963;46.052;14.544;2023-02-27T01:58:07;98230.69;;;-0.21;95.48
56182;BME280;51963;46.052;14.544;2023-02-27T02:00:34;98230.59;;;-0.31;97.70
56182;BME280;51963;46.052;14.544;2023-02-27T02:05:51;98229.88;;;-0.33;97.91
56182;BME280;51963;46.052;14.544;2023-02-27T02:08:20;98235.94;;;-0.44;99.15
56182;BME280;51963;46.052;14.544;2023-02-27T02:10:47;98246.69;;;-0.49;100.00
56182;BME280;51963;46.052;14.544;2023-02-27T02:13:17;98252.59;;;-0.58;100.00
56182;BME280;51963;46.052;14.544;2023-02-27T02:15:58;98239.16;;;-0.63;100.00
56182;BME280;51963;46.052;14.544;2023-02-27T02:29:35;98251.44;;;-0.88;100.00
56182;BME280;51963;46.052;14.544;2023-02-27T02:32:55;98255.69;;;-0.87;100.00
56182;BME280;51963;46.052;14.544;2023-02-27T02:46:18;98274.56;;;-0.74;100.00
56182;BME280;51963;46.052;14.544;2023-02-27T02:49:00;98267.72;;;-0.75;100.00
56182;BME280;51963;46.052;14.544;2023-02-27T02:51:54;98276.34;;;-0.63;100.00
56182;BME280;51963;46.052;14.544;2023-02-27T02:54:44;98275.16;;;-0.70;100.00
56182;BME280;51963;46.052;14.544;2023-02-27T02:57:18;98277.88;;;-0.71;100.00
56182;BME280;51963;46.052;14.544;2023-02-27T03:00:14;98275.97;;;-0.69;100.00
56182;BME280;51963;46.052;14.544;2023-02-27T03:02:59;98277.88;;;-0.71;100.00
56182;BME280;51963;46.052;14.544;2023-02-27T03:05:36;98280.22;;;-0.68;100.00
56182;BME280;51963;46.052;14.544;2023-02-27T03:08:07;98278.22;;;-0.65;100.00
56182;BME280;51963;46.052;14.544;2023-02-27T03:10:44;98294.75;;;-0.54;100.00
56182;BME280;51963;46.052;14.544;2023-02-27T03:18:36;98293.44;;;-0.49;99.99
56182;BME280;51963;46.052;14.544;2023-02-27T03:21:10;98302.19;;;-0.50;100.00
56182;BME280;51963;46.052;14.544;2023-02-27T03:23:42;98299.09;;;-0.55;100.00
56182;BME280;51963;46.052;14.544;2023-02-27T03:26:11;98312.56;;;-0.50;98.50
56182;BME280;51963;46.052;14.544;2023-02-27T03:28:47;98313.63;;;-0.41;97.91
56182;BME280;51963;46.052;14.544;2023-02-27T03:31:33;98304.53;;;-0.47;98.66
56182;BME280;51963;46.052;14.544;2023-02-27T03:34:10;98313.03;;;-0.45;99.19
56182;BME280;51963;46.052;14.544;2023-02-27T03:36:48;98294.03;;;-0.45;95.20
56182;BME280;51963;46.052;14.544;2023-02-27T03:45:35;98296.63;;;-0.45;93.46
56182;BME280;51963;46.052;14.544;2023-02-27T03:48:05;98305.72;;;-0.39;92.75
56182;BME280;51963;46.052;14.544;2023-02-27T03:50:33;98310.31;;;-0.32;91.89
56182;BME280;51963;46.052;14.544;2023-02-27T03:53:05;98297.91;;;-0.39;91.74
56182;BME280;51963;46.052;14.544;2023-02-27T03:55:38;98315.84;;;-0.25;91.93
56182;BME280;51963;46.052;14.544;2023-02-27T03:58:05;98314.44;;;-0.29;91.81
56182;BME280;51963;46.052;14.544;2023-02-27T04:00:31;98325.06;;;-0.32;93.01
56182;BME280;51963;46.052;14.544;2023-02-27T04:02:59;98329.69;;;-0.36;91.28
56182;BME280;51963;46.052;14.544;2023-02-27T04:05:27;98335.22;;;-0.29;91.66
56182;BME280;51963;46.052;14.544;2023-02-27T04:35:42;98347.72;;;-0.68;92.33
56182;BME280;51963;46.052;14.544;2023-02-27T04:38:28;98375.34;;;-0.67;92.38
56182;BME280;51963;46.052;14.544;2023-02-27T04:41:01;98375.84;;;-0.62;91.59
56182;BME280;51963;46.052;14.544;2023-02-27T04:43:29;98365.44;;;-0.62;92.01
56182;BME280;51963;46.052;14.544;2023-02-27T04:45:57;98369.69;;;-0.61;91.93
56182;BME280;51963;46.052;14.544;2023-02-27T04:48:28;98374.41;;;-0.66;92.55
56182;BME280;51963;46.052;14.544;2023-02-27T04:51:09;98368.63;;;-0.70;92.68
56182;BME280;51963;46.052;14.544;2023-02-27T04:53:45;98373.22;;;-0.74;93.32
56182;BME280;51963;46.052;14.544;2023-02-27T04:56:21;98364.13;;;-0.79;93.13
56182;BME280;51963;46.052;14.544;2023-02-27T04:58:57;98351.38;;;-0.94;91.58
56182;BME280;51963;46.052;14.544;2023-02-27T05:01:38;98381.25;;;-0.77;93.05
56182;BME280;51963;46.052;14.544;2023-02-27T05:04:07;98379.03;;;-0.70;93.33
56182;BME280;51963;46.052;14.544;2023-02-27T05:06:38;98384.56;;;-0.75;92.20
56182;BME280;51963;46.052;14.544;2023-02-27T05:11:48;98367.78;;;-0.82;93.52
56182;BME280;51963;46.052;14.544;2023-02-27T05:14:19;98385.00;;;-0.81;93.19
56182;BME280;51963;46.052;14.544;2023-02-27T05:19:15;98388.31;;;-0.79;93.04
56182;BME280;51963;46.052;14.544;2023-02-27T05:32:33;98410.72;;;-0.89;94.36
56182;BME280;51963;46.052;14.544;2023-02-27T05:35:10;98415.69;;;-0.86;94.78
56182;BME280;51963;46.052;14.544;2023-02-27T05:37:52;98419.44;;;-0.90;93.33
56182;BME280;51963;46.052;14.544;2023-02-27T05:40:45;98427.13;;;-0.89;94.24
56182;BME280;51963;46.052;14.544;2023-02-27T05:43:22;98416.13;;;-0.92;94.10
56182;BME280;51963;46.052;14.544;2023-02-27T05:45:54;98418.84;;;-0.94;93.97
56182;BME280;51963;46.052;14.544;2023-02-27T05:48:25;98421.94;;;-0.89;93.98
56182;BME280;51963;46.052;14.544;2023-02-27T05:50:53;98410.16;;;-0.81;93.67
56182;BME280;51963;46.052;14.544;2023-02-27T05:53:21;98424.63;;;-0.90;92.68
56182;BME280;51963;46.052;14.544;2023-02-27T05:55:52;98422.03;;;-0.90;93.46
56182;BME280;51963;46.052;14.544;2023-02-27T05:58:22;98426.06;;;-0.86;93.55
56182;BME280;51963;46.052;14.544;2023-02-27T06:00:53;98423.91;;;-0.92;93.95
56182;BME280;51963;46.052;14.544;2023-02-27T06:03:21;98430.75;;;-0.91;93.91
56182;BME280;51963;46.052;14.544;2023-02-27T06:05:48;98426.75;;;-0.95;93.92
56182;BME280;51963;46.052;14.544;2023-02-27T06:08:18;98435.00;;;-0.90;93.39
56182;BME280;51963;46.052;14.544;2023-02-27T06:10:44;98435.84;;;-0.90;94.25
56182;BME280;51963;46.052;14.544;2023-02-27T06:13:11;98454.06;;;-0.78;92.14
56182;BME280;51963;46.052;14.544;2023-02-27T06:15:37;98448.25;;;-0.82;92.74
56182;BME280;51963;46.052;14.544;2023-02-27T06:18:05;98461.84;;;-0.78;92.35
56182;BME280;51963;46.052;14.544;2023-02-27T06:20:31;98466.09;;;-0.77;92.89
56182;BME280;51963;46.052;14.544;2023-02-27T06:22:57;98475.41;;;-0.75;92.33
56182;BME280;51963;46.052;14.544;2023-02-27T06:25:22;98461.84;;;-0.78;91.87
56182;BME280;51963;46.052;14.544;2023-02-27T06:27:48;98467.63;;;-0.75;92.71
56182;BME280;51963;46.052;14.544;2023-02-27T06:30:14;98476.25;;;-0.74;90.95
56182;BME280;51963;46.052;14.544;2023-02-27T06:32:40;98474.03;;;-0.67;91.76
56182;BME280;51963;46.052;14.544;2023-02-27T06:35:06;98476.88;;;-0.59;90.18
56182;BME280;51963;46.052;14.544;2023-02-27T06:37:32;98480.91;;;-0.55;90.18
56182;BME280;51963;46.052;14.544;2023-02-27T06:39:58;98491.75;;;-0.61;90.30
56182;BME280;51963;46.052;14.544;2023-02-27T06:42:23;98486.19;;;-0.68;90.19
56182;BME280;51963;46.052;14.544;2023-02-27T06:44:49;98503.78;;;-0.60;90.33
56182;BME280;51963;46.052;14.544;2023-02-27T06:47:15;98500.00;;;-0.67;90.65
56182;BME280;51963;46.052;14.544;2023-02-27T06:49:41;98492.66;;;-0.74;90.28
56182;BME280;51963;46.052;14.544;2023-02-27T06:52:06;98488.66;;;-0.66;90.97
56182;BME280;51963;46.052;14.544;2023-02-27T06:54:32;98507.00;;;-0.56;90.96
56182;BME280;51963;46.052;14.544;2023-02-27T06:56:59;98509.22;;;-0.63;91.45
56182;BME280;51963;46.052;14.544;2023-02-27T06:59:25;98509.00;;;-0.60;91.79
56182;BME280;51963;46.052;14.544;2023-02-27T07:01:50;98510.91;;;-0.51;91.24
56182;BME280;51963;46.052;14.544;2023-02-27T07:04:16;98504.09;;;-0.40;90.50
56182;BME280;51963;46.052;14.544;2023-02-27T07:06:42;98516.97;;;-0.39;90.58
56182;BME280;51963;46.052;14.544;2023-02-27T07:09:08;98508.25;;;-0.38;91.29
56182;BME280;51963;46.052;14.544;2023-02-27T07:11:34;98512.13;;;-0.32;89.68
56182;BME280;51963;46.052;14.544;2023-02-27T07:13:59;98512.38;;;-0.35;90.00
56182;BME280;51963;46.052;14.544;2023-02-27T07:16:25;98512.97;;;-0.32;89.48
56182;BME280;51963;46.052;14.544;2023-02-27T07:18:51;98510.47;;;-0.33;89.70
56182;BME280;51963;46.052;14.544;2023-02-27T07:21:16;98522.31;;;-0.29;89.78
56182;BME280;51963;46.052;14.544;2023-02-27T07:23:42;98521.25;;;-0.26;88.94
56182;BME280;51963;46.052;14.544;2023-02-27T07:26:08;98524.91;;;-0.18;89.68
56182;BME280;51963;46.052;14.544;2023-02-27T07:28:34;98532.00;;;-0.20;88.71
56182;BME280;51963;46.052;14.544;2023-02-27T07:31:00;98526.47;;;-0.15;88.16
56182;BME280;51963;46.052;14.544;2023-02-27T07:33:26;98521.16;;;-0.13;87.85
56182;BME280;51963;46.052;14.544;2023-02-27T07:35:52;98527.28;;;-0.15;88.92
56182;BME280;51963;46.052;14.544;2023-02-27T07:38:18;98532.19;;;0.02;88.12
56182;BME280;51963;46.052;14.544;2023-02-27T07:40:45;98522.78;;;-0.24;87.78
56182;BME280;51963;46.052;14.544;2023-02-27T07:43:11;98527.19;;;-0.13;88.19
56182;BME280;51963;46.052;14.544;2023-02-27T07:45:37;98539.38;;;-0.02;87.02
56182;BME280;51963;46.052;14.544;2023-02-27T07:48:02;98541.41;;;0.17;85.29
56182;BME280;51963;46.052;14.544;2023-02-27T07:50:28;98516.47;;;0.03;85.84
56182;BME280;51963;46.052;14.544;2023-02-27T07:52:54;98527.34;;;0.20;83.71
56182;BME280;51963;46.052;14.544;2023-02-27T07:55:19;98540.59;;;0.28;83.03
56182;BME280;51963;46.052;14.544;2023-02-27T07:57:45;98531.38;;;0.35;84.35
56182;BME280;51963;46.052;14.544;2023-02-27T08:00:11;98534.09;;;0.34;84.60
56182;BME280;51963;46.052;14.544;2023-02-27T08:02:40;98531.63;;;0.43;84.16
56182;BME280;51963;46.052;14.544;2023-02-27T08:05:06;98544.25;;;0.48;84.35
56182;BME280;51963;46.052;14.544;2023-02-27T08:07:32;98501.59;;;0.39;85.28
56182;BME280;51963;46.052;14.544;2023-02-27T08:09:58;98500.63;;;0.40;85.54
56182;BME280;51963;46.052;14.544;2023-02-27T08:12:23;98529.22;;;0.63;85.07
56182;BME280;51963;46.052;14.544;2023-02-27T08:14:49;98531.38;;;0.58;82.72
56182;BME280;51963;46.052;14.544;2023-02-27T08:17:15;98525.44;;;0.67;83.12
56182;BME280;51963;46.052;14.544;2023-02-27T08:19:41;98529.88;;;0.99;82.80
56182;BME280;51963;46.052;14.544;2023-02-27T08:22:06;98543.72;;;0.88;80.26
56182;BME280;51963;46.052;14.544;2023-02-27T08:24:32;98527.25;;;1.11;80.00
56182;BME280;51963;46.052;14.544;2023-02-27T08:26:58;98532.03;;;0.94;79.81
56182;BME280;51963;46.052;14.544;2023-02-27T08:29:24;98528.91;;;1.33;77.63
56182;BME280;51963;46.052;14.544;2023-02-27T08:31:49;98506.31;;;1.01;75.66
56182;BME280;51963;46.052;14.544;2023-02-27T08:34:15;98538.78;;;1.29;77.05
56182;BME280;51963;46.052;14.544;2023-02-27T08:36:41;98534.97;;;1.55;76.74
56182;BME280;51963;46.052;14.544;2023-02-27T08:39:07;98546.81;;;1.59;77.80
56182;BME280;51963;46.052;14.544;2023-02-27T08:41:33;98546.06;;;1.89;76.56
56182;BME280;51963;46.052;14.544;2023-02-27T08:43:59;98553.06;;;1.89;75.43
56182;BME280;51963;46.052;14.544;2023-02-27T08:46:25;98549.28;;;1.82;75.38
56182;BME280;51963;46.052;14.544;2023-02-27T08:48:51;98552.72;;;1.40;75.14
56182;BME280;51963;46.052;14.544;2023-02-27T08:51:17;98553.94;;;1.57;77.12
56182;BME280;51963;46.052;14.544;2023-02-27T08:53:42;98546.94;;;1.57;76.64
56182;BME280;51963;46.052;14.544;2023-02-27T08:56:08;98560.88;;;1.68;76.07
56182;BME280;51963;46.052;14.544;2023-02-27T08:58:34;98545.00;;;1.71;75.88
56182;BME280;51963;46.052;14.544;2023-02-27T09:01:01;98539.63;;;1.94;74.96
56182;BME280;51963;46.052;14.544;2023-02-27T09:03:26;98560.97;;;2.61;73.88
56182;BME280;51963;46.052;14.544;2023-02-27T09:05:54;98562.81;;;2.18;72.63
56182;BME280;51963;46.052;14.544;2023-02-27T09:08:20;98554.56;;;2.13;74.82
56182;BME280;51963;46.052;14.544;2023-02-27T09:10:46;98554.63;;;2.23;74.43
56182;BME280;51963;46.052;14.544;2023-02-27T09:13:12;98549.63;;;2.41;71.06
56182;BME280;51963;46.052;14.544;2023-02-27T09:15:38;98547.00;;;2.82;71.54
56182;BME280;51963;46.052;14.544;2023-02-27T09:18:04;98558.69;;;2.77;71.03
56182;BME280;51963;46.052;14.544;2023-02-27T09:20:33;98563.22;;;2.75;68.62
56182;BME280;51963;46.052;14.544;2023-02-27T09:23:01;98567.16;;;3.01;69.36
56182;BME280;51963;46.052;14.544;2023-02-27T09:25:27;98566.16;;;2.92;69.09
56182;BME280;51963;46.052;14.544;2023-02-27T09:27:54;98567.78;;;2.93;67.47
56182;BME280;51963;46.052;14.544;2023-02-27T09:30:20;98569.53;;;3.23;66.22
56182;BME280;51963;46.052;14.544;2023-02-27T09:32:46;98575.97;;;3.29;65.38
56182;BME280;51963;46.052;14.544;2023-02-27T09:35:11;98568.44;;;3.75;65.17
56182;BME280;51963;46.052;14.544;2023-02-27T09:37:41;98570.22;;;3.45;66.56
56182;BME280;51963;46.052;14.544;2023-02-27T09:40:22;98561.28;;;3.77;63.49
56182;BME280;51963;46.052;14.544;2023-02-27T09:42:49;98579.88;;;4.32;64.22
56182;BME280;51963;46.052;14.544;2023-02-27T09:45:26;98564.19;;;5.16;60.14
56182;BME280;51963;46.052;14.544;2023-02-27T09:47:59;98575.06;;;4.65;62.40
56182;BME280;51963;46.052;14.544;2023-02-27T09:50:36;98555.44;;;4.51;61.97
56182;BME280;51963;46.052;14.544;2023-02-27T09:53:11;98576.22;;;4.90;60.70
56182;BME280;51963;46.052;14.544;2023-02-27T09:55:39;98567.72;;;5.24;59.58
56182;BME280;51963;46.052;14.544;2023-02-27T09:58:36;98563.78;;;6.19;58.03
56182;BME280;51963;46.052;14.544;2023-02-27T10:01:22;98572.09;;;5.52;59.28
56182;BME280;51963;46.052;14.544;2023-02-27T10:06:32;98577.69;;;4.93;60.64
56182;BME280;51963;46.052;14.544;2023-02-27T10:14:58;98580.25;;;4.47;62.41
56182;BME280;51963;46.052;14.544;2023-02-27T10:17:35;98589.38;;;4.33;62.90
56182;BME280;51963;46.052;14.544;2023-02-27T10:20:07;98590.78;;;4.17;62.29
56182;BME280;51963;46.052;14.544;2023-02-27T10:22:41;98586.09;;;4.31;62.78
56182;BME280;51963;46.052;14.544;2023-02-27T10:25:26;98577.94;;;4.44;61.76
56182;BME280;51963;46.052;14.544;2023-02-27T10:27:57;98570.13;;;4.62;61.68
56182;BME280;51963;46.052;14.544;2023-02-27T10:30:26;98577.63;;;3.89;62.59
56182;BME280;51963;46.052;14.544;2023-02-27T10:33:08;98585.13;;;4.32;63.13
56182;BME280;51963;46.052;14.544;2023-02-27T10:35:39;98578.72;;;4.44;60.76
56182;BME280;51963;46.052;14.544;2023-02-27T10:38:17;98559.25;;;4.19;63.05
56182;BME280;51963;46.052;14.544;2023-02-27T10:40:45;98582.66;;;4.20;61.37
56182;BME280;51963;46.052;14.544;2023-02-27T10:43:14;98582.38;;;4.23;62.58
56182;BME280;51963;46.052;14.544;2023-02-27T10:45:43;98584.47;;;4.10;63.92
56182;BME280;51963;46.052;14.544;2023-02-27T10:48:10;98580.56;;;4.34;62.65
56182;BME280;51963;46.052;14.544;2023-02-27T10:50:42;98587.66;;;4.51;61.41
56182;BME280;51963;46.052;14.544;2023-02-27T10:53:23;98574.34;;;4.35;62.67
56182;BME280;51963;46.052;14.544;2023-02-27T10:56:03;98584.16;;;4.33;62.53
56182;BME280;51963;46.052;14.544;2023-02-27T10:58:32;98575.50;;;4.22;64.24
56182;BME280;51963;46.052;14.544;2023-02-27T11:01:09;98572.53;;;3.78;64.65
56182;BME280;51963;46.052;14.544;2023-02-27T11:03:39;98580.53;;;3.96;65.18
56182;BME280;51963;46.052;14.544;2023-02-27T11:06:21;98560.44;;;3.77;64.22
56182;BME280;51963;46.052;14.544;2023-02-27T11:09:18;98568.16;;;3.69;64.96
56182;BME280;51963;46.052;14.544;2023-02-27T11:11:45;98561.81;;;3.71;63.70
56182;BME280;51963;46.052;14.544;2023-02-27T11:14:31;98568.81;;;3.90;64.22
56182;BME280;51963;46.052;14.544;2023-02-27T11:17:01;98557.38;;;3.91;64.12
56182;BME280;51963;46.052;14.544;2023-02-27T11:19:36;98559.06;;;3.63;62.77
56182;BME280;51963;46.052;14.544;2023-02-27T11:22:04;98556.22;;;4.23;63.52
56182;BME280;51963;46.052;14.544;2023-02-27T11:24:31;98550.47;;;4.10;62.27
56182;BME280;51963;46.052;14.544;2023-02-27T11:27:03;98544.34;;;3.72;64.24
56182;BME280;51963;46.052;14.544;2023-02-27T11:29:30;98556.69;;;3.89;64.00
56182;BME280;51963;46.052;14.544;2023-02-27T11:32:25;98548.88;;;3.50;65.31
56182;BME280;51963;46.052;14.544;2023-02-27T11:34:51;98540.94;;;4.84;60.64
56182;BME280;51963;46.052;14.544;2023-02-27T11:37:34;98548.44;;;5.43;58.79
56182;BME280;51963;46.052;14.544;2023-02-27T11:42:43;98547.59;;;4.41;60.73
56182;BME280;51963;46.052;14.544;2023-02-27T11:47:47;98547.44;;;4.05;61.73
56182;BME280;51963;46.052;14.544;2023-02-27T11:55:48;98539.25;;;3.60;63.23
56182;BME280;51963;46.052;14.544;2023-02-27T11:58:19;98530.88;;;4.24;61.90
56182;BME280;51963;46.052;14.544;2023-02-27T12:03:23;98531.97;;;4.21;60.83
56182;BME280;51963;46.052;14.544;2023-02-27T12:05:55;98533.59;;;4.32;59.92
56182;BME280;51963;46.052;14.544;2023-02-27T12:11:00;98521.28;;;5.53;56.90
56182;BME280;51963;46.052;14.544;2023-02-27T12:13:30;98508.81;;;4.82;58.49
56182;BME280;51963;46.052;14.544;2023-02-27T12:16:07;98525.69;;;5.52;57.21
56182;BME280;51963;46.052;14.544;2023-02-27T12:18:41;98515.47;;;5.85;55.43
56182;BME280;51963;46.052;14.544;2023-02-27T12:23:56;98524.88;;;4.04;60.44
56182;BME280;51963;46.052;14.544;2023-02-27T12:26:30;98512.38;;;3.88;60.86
56182;BME280;51963;46.052;14.544;2023-02-27T12:31:45;98532.91;;;3.83;60.90
56182;BME280;51963;46.052;14.544;2023-02-27T12:34:38;98529.97;;;4.43;59.57
56182;BME280;51963;46.052;14.544;2023-02-27T12:37:11;98515.22;;;4.70;58.83
56182;BME280;51963;46.052;14.544;2023-02-27T12:39:39;98527.91;;;4.37;59.03
56182;BME280;51963;46.052;14.544;2023-02-27T12:48:02;98517.28;;;4.01;58.98
56182;BME280;51963;46.052;14.544;2023-02-27T12:50:41;98510.28;;;4.01;59.30
56182;BME280;51963;46.052;14.544;2023-02-27T12:56:08;98528.09;;;3.78;59.71
56182;BME280;51963;46.052;14.544;2023-02-27T13:01:47;98524.66;;;3.28;61.94
56182;BME280;51963;46.052;14.544;2023-02-27T13:07:04;98526.75;;;4.21;59.30
56182;BME280;51963;46.052;14.544;2023-02-27T13:09:56;98537.19;;;3.84;60.82
56182;BME280;51963;46.052;14.544;2023-02-27T13:12:42;98544.47;;;3.80;60.99
56182;BME280;51963;46.052;14.544;2023-02-27T13:18:47;98543.53;;;4.29;59.06
56182;BME280;51963;46.052;14.544;2023-02-27T13:20:58;98543.22;;;4.32;59.13
56182;BME280;51963;46.052;14.544;2023-02-27T13:23:38;98543.63;;;3.89;60.24
56182;BME280;51963;46.052;14.544;2023-02-27T13:26:23;98541.84;;;3.80;60.78
56182;BME280;51963;46.052;14.544;2023-02-27T13:28:51;98529.28;;;4.03;59.62
56182;BME280;51963;46.052;14.544;2023-02-27T13:34:26;98540.56;;;4.04;61.19
56182;BME280;51963;46.052;14.544;2023-02-27T13:37:01;98542.81;;;3.79;60.30
56182;BME280;51963;46.052;14.544;2023-02-27T13:44:52;98547.66;;;3.25;61.31
56182;BME280;51963;46.052;14.544;2023-02-27T13:49:54;98555.44;;;2.95;63.10
56182;BME280;51963;46.052;14.544;2023-02-27T13:52:28;98553.47;;;2.77;62.89
56182;BME280;51963;46.052;14.544;2023-02-27T13:54:58;98560.44;;;2.67;63.38
56182;BME280;51963;46.052;14.544;2023-02-27T13:57:34;98563.44;;;3.03;63.12
56182;BME280;51963;46.052;14.544;2023-02-27T14:00:31;98567.56;;;3.06;63.09
56182;BME280;51963;46.052;14.544;2023-02-27T14:03:16;98576.53;;;3.23;62.48
56182;BME280;51963;46.052;14.544;2023-02-27T14:05:46;98569.38;;;3.15;63.08
56182;BME280;51963;46.052;14.544;2023-02-27T14:08:18;98563.84;;;3.08;62.65
56182;BME280;51963;46.052;14.544;2023-02-27T14:10:58;98568.28;;;3.37;62.66
56182;BME280;51963;46.052;14.544;2023-02-27T14:24:24;98571.72;;;3.67;62.31
56182;BME280;51963;46.052;14.544;2023-02-27T14:26:52;98580.41;;;3.68;62.46
56182;BME280;51963;46.052;14.544;2023-02-27T14:29:28;98579.16;;;3.43;72.74
56182;BME280;51963;46.052;14.544;2023-02-27T14:32:02;98577.59;;;3.11;78.25
56182;BME280;51963;46.052;14.544;2023-02-27T14:34:28;98574.44;;;3.17;79.81
56182;BME280;51963;46.052;14.544;2023-02-27T14:36:58;98582.88;;;2.79;85.21
56182;BME280;51963;46.052;14.544;2023-02-27T14:39:30;98587.09;;;2.40;88.24
56182;BME280;51963;46.052;14.544;2023-02-27T14:42:26;98591.06;;;2.34;90.86
56182;BME280;51963;46.052;14.544;2023-02-27T14:44:49;98593.75;;;2.01;93.94
56182;BME280;51963;46.052;14.544;2023-02-27T14:47:36;98598.19;;;2.11;93.55
56182;BME280;51963;46.052;14.544;2023-02-27T14:50:04;98614.06;;;1.98;94.61
56182;BME280;51963;46.052;14.544;2023-02-27T14:52:40;98605.34;;;1.87;95.34
56182;BME280;51963;46.052;14.544;2023-02-27T14:57:39;98606.16;;;1.67;96.79
56182;BME280;51963;46.052;14.544;2023-02-27T15:00:05;98603.66;;;1.65;98.20
56182;BME280;51963;46.052;14.544;2023-02-27T15:02:34;98613.75;;;1.58;97.47
56182;BME280;51963;46.052;14.544;2023-02-27T15:07:32;98621.84;;;1.44;100.00
56182;BME280;51963;46.052;14.544;2023-02-27T15:10:01;98622.97;;;1.63;100.00
56182;BME280;51963;46.052;14.544;2023-02-27T15:12:28;98631.97;;;1.70;96.37
56182;BME280;51963;46.052;14.544;2023-02-27T15:14:59;98623.91;;;1.29;99.01
56182;BME280;51963;46.052;14.544;2023-02-27T15:17:36;98627.88;;;1.44;98.91
56182;BME280;51963;46.052;14.544;2023-02-27T15:22:51;98638.06;;;1.48;97.57
56182;BME280;51963;46.052;14.544;2023-02-27T15:25:36;98643.69;;;1.31;98.56
56182;BME280;51963;46.052;14.544;2023-02-27T15:28:04;98637.75;;;1.41;99.51
56182;BME280;51963;46.052;14.544;2023-02-27T15:30:31;98638.22;;;1.35;100.00
56182;BME280;51963;46.052;14.544;2023-02-27T15:32:58;98643.19;;;1.38;100.00
56182;BME280;51963;46.052;14.544;2023-02-27T15:35:30;98655.00;;;1.53;98.90
56182;BME280;51963;46.052;14.544;2023-02-27T15:37:58;98648.16;;;1.41;98.46
56182;BME280;51963;46.052;14.544;2023-02-27T15:40:26;98645.16;;;1.45;98.13
56182;BME280;51963;46.052;14.544;2023-02-27T15:42:53;98641.75;;;1.45;97.11
56182;BME280;51963;46.052;14.544;2023-02-27T15:45:22;98648.97;;;1.41;96.50
56182;BME280;51963;46.052;14.544;2023-02-27T15:47:49;98642.38;;;1.26;96.23
56182;BME280;51963;46.052;14.544;2023-02-27T15:52:53;98652.41;;;1.42;96.25